Time;durP1;ratioP1;P1;durP2;ratioP2;P2;SDS_P1;SDS_P2;PMS_P1;PMS_P2;Temp;Humidity;BMP_temperature;BMP_pressure;BME280_temperature;BME280_humidity;BME280_pressure;Samples;Min_cycle;Max_cycle;Signal;HPM_P1;HPM_P2
2023/03/08 00:00:13;;;;;;;;;2.00;1.00;;;;;13.50;58.38;99184.16;4995453;28;45638;-78
2023/03/08 00:02:38;;;;;;;;;0.00;0.00;;;;;13.59;57.87;99178.00;4995859;28;45195;-69
2023/03/08 00:05:05;;;;;;;;;1.33;1.00;;;;;13.58;58.09;99165.75;4995403;28;45371;-70
2023/03/08 00:07:31;;;;;;;;;2.00;2.00;;;;;13.68;57.59;99171.84;4998621;28;45485;-69
2023/03/08 00:09:56;;;;;;;;;1.00;1.00;;;;;13.70;57.70;99180.56;4999243;28;45533;-70
2023/03/08 00:12:22;;;;;;;;;3.00;1.67;;;;;13.72;57.74;99171.81;4997772;28;45408;-71
2023/03/08 00:14:48;;;;;;;;;1.00;1.00;;;;;13.70;57.66;99170.94;4999684;28;45358;-72
2023/03/08 00:17:14;;;;;;;;;1.00;1.00;;;;;13.73;56.93;99155.19;4999885;28;45468;-80
2023/03/08 00:19:40;;;;;;;;;2.00;2.00;;;;;13.84;57.10;99151.63;4998946;28;46023;-79
2023/03/08 00:22:05;;;;;;;;;1.25;1.25;;;;;13.88;56.76;99138.47;4999290;28;45244;-80
2023/03/08 00:24:31;;;;;;;;;1.75;1.75;;;;;13.89;56.85;99150.72;4999127;28;45669;-80
2023/03/08 00:26:56;;;;;;;;;2.00;2.00;;;;;13.98;56.78;99170.78;4999568;28;45443;-80
2023/03/08 00:29:22;;;;;;;;;1.00;1.00;;;;;13.98;56.95;99157.66;4998935;28;45685;-80
2023/03/08 00:31:48;;;;;;;;;0.00;0.00;;;;;14.00;56.39;99142.78;4999343;28;45427;-79
2023/03/08 00:34:13;;;;;;;;;2.00;2.00;;;;;14.01;56.32;99134.03;4998716;28;45367;-76
2023/03/08 00:36:39;;;;;;;;;2.00;2.00;;;;;13.92;56.32;99123.59;4999012;28;45594;-80
2023/03/08 00:39:05;;;;;;;;;2.00;2.00;;;;;14.02;56.27;99135.75;4997971;28;46002;-74
2023/03/08 00:41:30;;;;;;;;;2.00;1.00;;;;;13.91;56.57;99134.97;4998139;28;45454;-80
2023/03/08 00:43:56;;;;;;;;;1.67;1.33;;;;;13.90;56.38;99141.09;4998517;28;45447;-80
2023/03/08 00:46:21;;;;;;;;;1.00;1.00;;;;;13.99;56.57;99163.81;4998549;28;45210;-80
2023/03/08 00:48:47;;;;;;;;;1.33;1.33;;;;;13.97;56.07;99140.19;4998442;28;45414;-76
2023/03/08 00:51:15;;;;;;;;;2.00;1.33;;;;;14.04;55.57;99149.75;4998774;28;45352;-80
2023/03/08 00:53:41;;;;;;;;;1.00;1.00;;;;;14.05;55.92;99148.03;4987065;28;45468;-78
2023/03/08 00:56:06;;;;;;;;;1.00;1.00;;;;;14.09;55.97;99158.47;4985508;28;45565;-80
2023/03/08 00:58:32;;;;;;;;;2.00;1.00;;;;;14.09;55.91;99163.72;4998494;28;45542;-79
2023/03/08 01:00:58;;;;;;;;;1.00;1.00;;;;;14.21;55.50;99175.06;4998838;28;45432;-76
2023/03/08 01:03:24;;;;;;;;;2.00;2.00;;;;;14.29;54.91;99160.97;4997921;28;45509;-80
2023/03/08 01:05:53;;;;;;;;;1.00;1.00;;;;;14.38;54.82;99153.91;4998725;28;45438;-79
2023/03/08 01:08:20;;;;;;;;;1.00;1.00;;;;;14.41;54.63;99140.75;4999379;28;45505;-71
2023/03/08 01:10:51;;;;;;;;;1.67;1.00;;;;;14.36;54.57;99146.03;4999271;28;45540;-80
2023/03/08 01:13:16;;;;;;;;;0.33;0.33;;;;;14.42;54.76;99167.00;4999632;28;45481;-80
2023/03/08 01:15:42;;;;;;;;;2.00;1.00;;;;;14.40;54.65;99162.63;4998467;28;45367;-80
2023/03/08 01:18:08;;;;;;;;;0.00;0.00;;;;;14.44;54.47;99153.84;4997682;28;45513;-77
2023/03/08 01:20:33;;;;;;;;;2.00;2.00;;;;;14.36;54.50;99129.41;5008791;28;45366;-76
2023/03/08 01:22:59;;;;;;;;;1.33;1.33;;;;;14.37;54.88;99137.28;5026731;28;44720;-76
2023/03/08 01:25:25;;;;;;;;;1.00;1.00;;;;;14.30;55.00;99148.69;4993985;28;45254;-76
2023/03/08 01:27:51;;;;;;;;;1.00;1.00;;;;;14.31;54.91;99153.94;5012497;28;46237;-71
2023/03/08 01:30:16;;;;;;;;;1.00;1.00;;;;;14.31;55.09;99147.84;5012141;28;45489;-80
2023/03/08 01:32:42;;;;;;;;;2.67;2.00;;;;;14.33;54.93;99153.94;5024460;28;44883;-76
2023/03/08 01:35:08;;;;;;;;;4.33;3.33;;;;;14.33;55.12;99141.69;5016014;28;45633;-81
2023/03/08 01:37:33;;;;;;;;;3.00;2.75;;;;;14.36;55.11;99134.66;5007686;28;45684;-81
2023/03/08 01:39:59;;;;;;;;;3.33;3.33;;;;;14.32;55.15;99131.16;5009510;28;44800;-81
2023/03/08 01:42:26;;;;;;;;;4.00;4.00;;;;;14.31;55.33;99129.44;5002737;28;45302;-80
2023/03/08 01:44:56;;;;;;;;;0.00;0.00;;;;;14.28;55.48;99124.19;4997711;28;45433;-78
2023/03/08 01:47:24;;;;;;;;;4.00;3.00;;;;;14.27;55.14;99112.81;5001847;28;45605;-76
2023/03/08 01:49:54;;;;;;;;;5.00;4.00;;;;;14.39;54.63;99108.38;5002072;28;45427;-81
2023/03/08 01:52:25;;;;;;;;;3.00;3.00;;;;;14.40;54.77;99095.19;4998140;28;45548;-80
2023/03/08 01:54:53;;;;;;;;;2.00;2.00;;;;;14.40;54.57;99086.44;4998543;28;45377;-81
2023/03/08 01:57:24;;;;;;;;;1.00;1.00;;;;;14.56;54.24;99100.31;4998277;28;45478;-80
2023/03/08 01:59:52;;;;;;;;;1.67;1.67;;;;;14.56;54.34;99092.44;4997682;28;45478;-71
2023/03/08 02:02:23;;;;;;;;;2.00;2.00;;;;;14.59;54.36;99090.69;4983012;28;45428;-78
2023/03/08 02:04:49;;;;;;;;;2.00;2.00;;;;;14.66;54.11;99116.03;4997440;28;45585;-80
2023/03/08 02:07:14;;;;;;;;;1.00;1.00;;;;;14.73;54.01;99108.94;4997304;28;45695;-78
2023/03/08 02:09:40;;;;;;;;;2.67;2.00;;;;;14.77;53.67;99105.41;4997543;28;45402;-79
2023/03/08 02:12:10;;;;;;;;;2.00;2.00;;;;;14.72;53.71;99109.81;4997745;28;45438;-80
2023/03/08 02:14:36;;;;;;;;;2.00;2.00;;;;;14.77;53.70;99117.69;4997480;28;45595;-80
2023/03/08 02:17:01;;;;;;;;;2.00;0.00;;;;;14.73;53.90;99106.31;4995763;28;45442;-78
2023/03/08 02:19:51;;;;;;;;;2.00;2.00;;;;;14.84;53.78;99109.72;4997523;28;45463;-80
2023/03/08 02:22:17;;;;;;;;;1.00;1.00;;;;;14.86;54.00;99100.06;4997003;28;45718;-78
2023/03/08 02:24:43;;;;;;;;;2.00;2.00;;;;;14.90;53.63;99103.50;4997307;28;45362;-80
2023/03/08 02:27:16;;;;;;;;;2.00;2.00;;;;;14.95;53.17;99092.97;4997130;28;45480;-76
2023/03/08 02:29:41;;;;;;;;;3.00;2.00;;;;;14.97;53.17;99091.19;4997430;28;45411;-80
2023/03/08 02:32:07;;;;;;;;;2.00;1.33;;;;;14.98;53.24;99109.56;4996912;28;45340;-80
2023/03/08 02:34:33;;;;;;;;;2.00;2.00;;;;;15.00;53.21;99086.75;4997638;28;45509;-79
2023/03/08 02:36:59;;;;;;;;;1.00;1.00;;;;;15.04;53.23;99093.72;4995114;28;45891;-80
2023/03/08 02:39:25;;;;;;;;;1.00;1.00;;;;;15.08;53.28;99105.94;4996731;28;45330;-71
2023/03/08 02:41:50;;;;;;;;;1.67;1.33;;;;;15.10;53.16;99111.19;4997120;28;45862;-80
2023/03/08 02:44:16;;;;;;;;;1.00;1.00;;;;;15.05;53.01;99116.50;4997216;28;45347;-80
2023/03/08 02:46:41;;;;;;;;;1.00;1.00;;;;;15.05;53.11;99111.22;4997062;28;45930;-79
2023/03/08 02:49:07;;;;;;;;;1.67;1.67;;;;;15.06;53.48;99117.34;4997055;28;45354;-80
2023/03/08 02:51:33;;;;;;;;;1.00;1.00;;;;;15.08;53.11;99126.09;4997092;28;45517;-78
2023/03/08 02:53:58;;;;;;;;;2.00;1.67;;;;;15.08;53.31;99126.09;4997151;28;45326;-79
2023/03/08 02:56:24;;;;;;;;;1.33;1.00;;;;;15.05;53.21;99116.50;4996584;28;45447;-80
2023/03/08 02:58:50;;;;;;;;;1.00;1.00;;;;;15.11;53.15;99132.19;4997059;28;45296;-79
2023/03/08 03:01:15;;;;;;;;;1.00;1.00;;;;;15.14;53.15;99120.81;4997345;28;45371;-80
2023/03/08 03:03:41;;;;;;;;;2.00;2.00;;;;;15.18;52.88;99118.97;4996724;28;45232;-79
2023/03/08 03:06:15;;;;;;;;;1.00;1.00;;;;;15.17;53.00;99125.16;4994881;28;45575;-80
2023/03/08 03:08:40;;;;;;;;;2.00;2.00;;;;;15.15;52.94;99116.41;4996818;28;45584;-80
2023/03/08 03:11:13;;;;;;;;;1.00;1.00;;;;;15.16;53.00;99115.50;4997292;28;45489;-80
2023/03/08 03:13:39;;;;;;;;;1.00;1.00;;;;;15.13;53.10;99105.88;4995575;28;45322;-79
2023/03/08 03:16:07;;;;;;;;;2.00;1.00;;;;;15.19;52.93;99108.44;4996038;28;45522;-77
2023/03/08 03:18:32;;;;;;;;;1.00;1.00;;;;;15.16;53.04;99097.09;4996730;28;45212;-82
2023/03/08 03:21:10;;;;;;;;;2.00;1.33;;;;;15.20;52.96;99099.69;4996786;28;45208;-79
2023/03/08 03:23:36;;;;;;;;;1.00;1.00;;;;;15.19;53.28;99092.66;4996679;28;45304;-80
2023/03/08 03:26:16;;;;;;;;;1.00;1.00;;;;;15.24;52.90;99100.50;4996615;28;45402;-79
2023/03/08 03:28:43;;;;;;;;;1.00;1.00;;;;;15.23;52.99;99101.41;4996846;28;45370;-78
2023/03/08 03:31:11;;;;;;;;;1.67;1.00;;;;;15.20;52.93;99091.78;4996942;28;45390;-80
2023/03/08 03:33:37;;;;;;;;;1.00;1.00;;;;;15.19;52.58;99081.28;4995559;28;45661;-69
2023/03/08 03:36:03;;;;;;;;;1.00;0.00;;;;;15.27;52.80;99096.06;4996474;28;45339;-70
2023/03/08 03:38:28;;;;;;;;;1.00;0.00;;;;;15.18;52.99;99083.03;4996470;28;45426;-70
2023/03/08 03:41:07;;;;;;;;;0.67;0.67;;;;;15.26;53.04;99098.72;4995585;28;45530;-69
2023/03/08 03:43:33;;;;;;;;;1.67;1.00;;;;;15.24;53.35;99100.50;4985735;28;45447;-68
2023/03/08 03:46:00;;;;;;;;;1.00;1.00;;;;;15.25;53.17;99091.72;4999714;28;45449;-69
2023/03/08 03:48:26;;;;;;;;;1.00;1.00;;;;;15.24;53.11;99097.84;4985351;28;45278;-80
2023/03/08 03:51:00;;;;;;;;;1.67;1.00;;;;;15.25;53.04;99089.09;4998208;28;45373;-79
2023/03/08 03:53:27;;;;;;;;;1.67;1.67;;;;;15.24;53.18;99096.13;5000104;28;45455;-79
2023/03/08 03:55:53;;;;;;;;;1.00;1.00;;;;;15.24;53.33;99092.59;4999364;28;46486;-78
2023/03/08 03:58:18;;;;;;;;;1.00;1.00;;;;;15.18;53.08;99074.25;4999311;28;45497;-79
2023/03/08 04:00:44;;;;;;;;;1.00;1.00;;;;;15.27;53.41;99090.81;4999386;28;45547;-79
2023/03/08 04:03:09;;;;;;;;;1.67;1.67;;;;;15.27;52.93;99092.56;4999630;28;45515;-76
2023/03/08 04:05:35;;;;;;;;;1.33;1.33;;;;;15.25;53.04;99089.94;4998446;28;46339;-80
2023/03/08 04:08:01;;;;;;;;;2.00;1.00;;;;;15.21;53.40;99074.25;4999526;28;45366;-79
2023/03/08 04:10:26;;;;;;;;;1.00;1.00;;;;;15.17;53.21;99073.41;4999785;28;45503;-80
2023/03/08 04:12:52;;;;;;;;;0.67;0.67;;;;;15.09;53.35;99060.34;4999716;28;45374;-78
2023/03/08 04:15:18;;;;;;;;;1.00;1.00;;;;;15.13;53.53;99071.69;4998916;28;46135;-78
2023/03/08 04:17:43;;;;;;;;;0.00;0.00;;;;;15.10;53.41;99064.72;4999228;28;45706;-79
2023/03/08 04:20:10;;;;;;;;;1.00;1.00;;;;;15.06;53.69;99064.75;4999042;28;45479;-79
2023/03/08 04:22:35;;;;;;;;;1.00;1.00;;;;;15.02;53.83;99063.06;4999676;28;45292;-79
2023/03/08 04:25:01;;;;;;;;;1.00;1.00;;;;;14.94;54.02;99059.66;4998525;28;46164;-76
2023/03/08 04:27:26;;;;;;;;;1.00;1.00;;;;;14.98;54.10;99074.50;4998961;28;45750;-80
2023/03/08 04:29:53;;;;;;;;;2.00;1.00;;;;;14.96;53.85;99060.50;4999053;28;45470;-80
2023/03/08 04:32:18;;;;;;;;;1.00;1.00;;;;;14.99;53.78;99071.00;4999101;28;45406;-79
2023/03/08 04:34:44;;;;;;;;;2.00;1.33;;;;;14.95;53.92;99066.66;4999232;28;46021;-80
2023/03/08 04:37:13;;;;;;;;;0.67;0.67;;;;;14.94;53.72;99071.06;4998912;28;45480;-79
2023/03/08 04:39:38;;;;;;;;;2.33;1.00;;;;;14.86;53.61;99055.38;4999225;28;45791;-79
2023/03/08 04:42:05;;;;;;;;;1.33;1.00;;;;;14.94;53.85;99070.16;4999026;28;45530;-77
2023/03/08 04:44:30;;;;;;;;;1.00;1.00;;;;;14.89;53.74;99049.19;4999082;28;46264;-80
2023/03/08 04:46:56;;;;;;;;;1.00;1.00;;;;;14.93;53.62;99047.41;4998939;28;45463;-80
2023/03/08 04:49:23;;;;;;;;;1.00;0.33;;;;;14.92;53.65;99051.78;4998633;28;45473;-79
2023/03/08 04:51:49;;;;;;;;;1.00;1.00;;;;;14.95;53.58;99056.16;4998689;28;45521;-79
2023/03/08 04:54:14;;;;;;;;;1.00;1.00;;;;;14.98;53.43;99053.47;4999912;28;45497;-79
2023/03/08 04:56:40;;;;;;;;;1.00;0.00;;;;;14.99;53.66;99048.19;4999670;28;45473;-79
2023/03/08 04:59:06;;;;;;;;;1.00;1.00;;;;;15.02;53.59;99047.28;4998985;28;45531;-79
2023/03/08 05:01:31;;;;;;;;;1.00;1.00;;;;;15.06;53.59;99046.34;4999230;28;45359;-79
2023/03/08 05:03:57;;;;;;;;;1.00;1.00;;;;;15.07;53.47;99046.34;4998116;28;45485;-79
2023/03/08 05:06:24;;;;;;;;;1.00;1.00;;;;;15.17;53.21;99052.34;4999172;28;45802;-79
2023/03/08 05:08:50;;;;;;;;;2.00;1.00;;;;;15.21;53.17;99045.31;4998882;28;45609;-79
2023/03/08 05:11:22;;;;;;;;;0.67;0.67;;;;;15.19;53.09;99045.31;4999317;28;45473;-79
2023/03/08 05:13:48;;;;;;;;;2.00;1.00;;;;;15.23;53.21;99056.66;4998866;28;45207;-77
2023/03/08 05:16:13;;;;;;;;;3.00;1.00;;;;;15.23;53.39;99065.44;4998668;28;45233;-79
2023/03/08 05:18:39;;;;;;;;;0.00;0.00;;;;;15.27;53.29;99074.16;4998876;28;45454;-76
2023/03/08 05:21:10;;;;;;;;;1.00;1.00;;;;;15.31;53.12;99076.72;4998451;28;45421;-77
2023/03/08 05:23:36;;;;;;;;;3.00;2.67;;;;;15.35;52.98;99067.03;4997070;28;46963;-75
2023/03/08 05:26:03;;;;;;;;;3.00;3.00;;;;;15.38;53.19;99061.75;4994028;28;45918;-80
2023/03/08 05:28:31;;;;;;;;;0.00;0.00;;;;;15.43;52.69;99059.91;4993598;28;45526;-77
2023/03/08 05:31:11;;;;;;;;;4.00;3.67;;;;;15.47;52.88;99051.06;4998176;28;45426;-77
2023/03/08 05:33:37;;;;;;;;;1.00;1.00;;;;;15.52;52.76;99028.22;4998320;28;45202;-80
2023/03/08 05:36:04;;;;;;;;;1.67;1.67;;;;;15.58;52.68;99021.97;4998710;28;45572;-74
2023/03/08 05:38:29;;;;;;;;;0.67;0.67;;;;;15.63;52.72;99020.13;4998478;28;45847;-80
2023/03/08 05:40:59;;;;;;;;;1.00;1.00;;;;;15.68;52.84;99018.31;4998559;28;45437;-76
2023/03/08 05:43:25;;;;;;;;;1.00;0.00;;;;;15.70;52.78;99034.97;5007237;28;46218;-80
2023/03/08 05:46:02;;;;;;;;;1.00;0.33;;;;;15.63;52.66;99033.28;5004802;28;45367;-79
2023/03/08 05:48:28;;;;;;;;;1.00;0.00;;;;;15.70;52.46;99045.50;4997942;28;45415;-75
2023/03/08 05:50:54;;;;;;;;;1.00;0.00;;;;;15.77;52.52;99043.66;4998301;28;45474;-76
2023/03/08 05:53:21;;;;;;;;;1.00;1.00;;;;;15.74;53.01;99051.63;4997828;28;46134;-77
2023/03/08 05:55:47;;;;;;;;;1.00;1.00;;;;;15.76;52.75;99051.59;4997958;28;45368;-78
2023/03/08 05:58:13;;;;;;;;;1.00;1.00;;;;;15.79;52.75;99067.34;4997717;28;45540;-80
2023/03/08 06:00:38;;;;;;;;;1.00;1.00;;;;;15.68;52.86;99057.81;4994591;28;45584;-80
2023/03/08 06:03:04;;;;;;;;;1.67;1.00;;;;;15.73;53.02;99060.41;5008725;28;46193;-79
2023/03/08 06:05:33;;;;;;;;;0.67;0.33;;;;;15.70;52.93;99056.03;4996733;28;45356;-80
2023/03/08 06:07:58;;;;;;;;;1.00;1.00;;;;;15.73;53.16;99070.06;4996570;28;45822;-75
2023/03/08 06:10:24;;;;;;;;;0.00;0.00;;;;;15.79;52.96;99059.44;4998213;28;45432;-79
2023/03/08 06:12:50;;;;;;;;;1.00;0.00;;;;;15.72;53.03;99061.28;4996664;28;45334;-78
2023/03/08 06:15:16;;;;;;;;;1.00;1.00;;;;;15.71;52.97;99048.97;4997185;28;45404;-80
2023/03/08 06:17:41;;;;;;;;;1.00;1.00;;;;;15.76;53.21;99052.47;4997658;28;45979;-69
2023/03/08 06:20:08;;;;;;;;;0.00;0.00;;;;;15.84;53.07;99060.25;4997465;28;45450;-78
2023/03/08 06:22:34;;;;;;;;;2.00;2.00;;;;;15.84;52.97;99057.63;4997122;28;45766;-78
2023/03/08 06:25:00;;;;;;;;;1.33;0.33;;;;;15.85;53.12;99049.66;4997434;28;45332;-69
2023/03/08 06:27:26;;;;;;;;;0.00;0.00;;;;;15.84;52.95;99047.94;4996990;28;45365;-81
2023/03/08 06:29:52;;;;;;;;;2.00;1.00;;;;;15.89;53.17;99059.25;4997702;28;45322;-81
2023/03/08 06:32:18;;;;;;;;;1.00;1.00;;;;;15.87;53.37;99049.66;4996696;28;46158;-77
2023/03/08 06:34:44;;;;;;;;;0.67;0.67;;;;;15.88;53.61;99051.41;4996981;28;45510;-81
2023/03/08 06:37:10;;;;;;;;;1.00;1.00;;;;;15.86;53.66;99046.16;4996377;28;45473;-80
2023/03/08 06:39:35;;;;;;;;;0.00;0.00;;;;;15.87;53.87;99037.34;4997297;28;45317;-71
2023/03/08 06:42:01;;;;;;;;;1.00;1.00;;;;;15.85;53.83;99027.75;4996712;28;46092;-79
2023/03/08 06:44:28;;;;;;;;;1.00;0.33;;;;;15.89;53.95;99046.09;4996519;28;45382;-73
2023/03/08 06:46:54;;;;;;;;;1.00;1.00;;;;;15.90;53.84;99028.56;4996690;28;45403;-70
2023/03/08 06:49:20;;;;;;;;;1.00;1.00;;;;;15.94;53.76;99024.97;4997747;28;45494;-69
2023/03/08 06:51:46;;;;;;;;;0.00;0.00;;;;;15.92;53.97;99016.22;4996461;28;45635;-80
2023/03/08 06:54:16;;;;;;;;;0.67;0.00;;;;;15.86;54.08;98995.25;4996887;28;45416;-78
2023/03/08 06:56:43;;;;;;;;;1.00;1.00;;;;;15.88;53.85;98980.31;4996580;28;45549;-81
2023/03/08 06:59:08;;;;;;;;;1.00;1.00;;;;;15.95;53.72;98986.31;4996967;28;45420;-81
2023/03/08 07:01:34;;;;;;;;;1.00;1.00;;;;;15.98;53.47;98988.94;4996732;28;45471;-76
2023/03/08 07:03:59;;;;;;;;;1.00;0.00;;;;;15.99;53.36;98994.16;4988379;28;45420;-82
2023/03/08 07:06:25;;;;;;;;;0.00;0.00;;;;;16.01;53.54;98994.13;4995122;28;45392;-81
2023/03/08 07:08:50;;;;;;;;;1.00;1.00;;;;;16.08;53.26;99001.91;4999797;28;45432;-80
2023/03/08 07:11:16;;;;;;;;;1.67;1.00;;;;;16.12;53.57;99028.22;4995417;28;45546;-78
2023/03/08 07:13:42;;;;;;;;;2.00;0.00;;;;;16.15;53.57;99012.31;4995935;28;45382;-81
2023/03/08 07:16:12;;;;;;;;;1.00;1.00;;;;;16.23;53.66;99013.06;4998031;28;45217;-70
2023/03/08 07:18:38;;;;;;;;;1.00;1.00;;;;;16.26;53.33;98994.56;4996512;28;45585;-71
2023/03/08 07:21:05;;;;;;;;;0.00;0.00;;;;;16.37;53.32;98997.88;4995830;28;45474;-77
2023/03/08 07:23:31;;;;;;;;;2.00;1.00;;;;;16.52;53.46;98990.59;4983072;28;45326;-81
2023/03/08 07:25:56;;;;;;;;;1.33;1.33;;;;;16.60;52.91;98997.44;4997570;28;45451;-81
2023/03/08 07:28:22;;;;;;;;;3.00;2.00;;;;;16.69;52.73;98986.72;4997539;28;45559;-79
2023/03/08 07:30:50;;;;;;;;;0.67;0.67;;;;;16.89;52.51;99011.84;4996325;28;47539;-79
2023/03/08 07:33:17;;;;;;;;;3.00;2.00;;;;;17.02;52.15;99001.91;4997294;28;45342;-80
2023/03/08 07:35:42;;;;;;;;;0.00;0.00;;;;;17.16;51.71;98997.22;4996604;28;45580;-79
2023/03/08 07:38:10;;;;;;;;;1.00;1.00;;;;;17.30;51.00;98997.78;4999625;28;45395;-81
2023/03/08 07:40:35;;;;;;;;;1.00;1.00;;;;;17.39;50.64;99001.09;4994399;28;46880;-81
2023/03/08 07:43:01;;;;;;;;;1.00;1.00;;;;;17.53;50.54;99022.81;4997514;28;45293;-83
2023/03/08 07:45:27;;;;;;;;;1.00;0.67;;;;;17.53;50.21;99021.91;4997726;28;45483;-80
2023/03/08 07:47:53;;;;;;;;;2.33;2.00;;;;;17.56;50.04;99006.88;5013251;28;45570;-81
2023/03/08 07:50:19;;;;;;;;;2.00;1.00;;;;;17.69;50.08;99000.41;4997461;28;45909;-80
2023/03/08 07:52:45;;;;;;;;;0.00;0.00;;;;;17.68;49.59;98990.72;4982685;28;45640;-83
2023/03/08 07:55:11;;;;;;;;;1.00;0.67;;;;;17.79;49.47;99010.75;4997341;28;45421;-83
2023/03/08 07:57:37;;;;;;;;;2.67;0.67;;;;;17.94;49.16;99010.41;4997350;28;45507;-79
2023/03/08 08:00:07;;;;;;;;;0.67;0.67;;;;;18.13;48.81;99005.53;4996191;28;45290;-79
2023/03/08 08:02:33;;;;;;;;;1.00;1.00;;;;;18.42;48.46;99031.22;4999532;28;45348;-81
2023/03/08 08:04:59;;;;;;;;;0.00;0.00;;;;;18.55;47.99;99028.25;5012115;28;45795;-81
2023/03/08 08:07:25;;;;;;;;;0.00;0.00;;;;;18.80;47.88;99044.34;4997911;28;45481;-82
2023/03/08 08:09:51;;;;;;;;;0.00;0.00;;;;;18.95;46.66;99037.75;4997091;28;46141;-81
2023/03/08 08:12:16;;;;;;;;;0.00;0.00;;;;;19.02;46.30;99041.94;4994866;28;45552;-79
2023/03/08 08:14:42;;;;;;;;;1.00;1.00;;;;;19.05;46.14;99021.56;4996438;28;45483;-78
2023/03/08 08:17:07;;;;;;;;;0.00;0.00;;;;;19.19;45.54;99041.47;4996802;28;45422;-76
2023/03/08 08:19:33;;;;;;;;;0.33;0.00;;;;;19.27;45.13;99032.38;4995948;28;45868;-75
2023/03/08 08:21:59;;;;;;;;;1.00;0.67;;;;;19.31;44.71;99050.84;4994967;28;45312;-77
2023/03/08 08:24:26;;;;;;;;;0.67;0.67;;;;;19.33;45.24;99031.34;4996286;28;45245;-76
2023/03/08 08:26:51;;;;;;;;;0.00;0.00;;;;;19.66;44.17;99028.59;4996712;28;45454;-77
2023/03/08 08:29:17;;;;;;;;;1.00;1.00;;;;;20.02;44.04;99028.34;4998772;28;46205;-76
2023/03/08 08:31:43;;;;;;;;;0.67;0.33;;;;;20.36;43.20;99027.22;4998670;28;45468;-75
2023/03/08 08:34:09;;;;;;;;;0.00;0.00;;;;;20.64;42.38;99011.22;5014865;28;45217;-75
2023/03/08 08:36:35;;;;;;;;;0.67;0.00;;;;;20.86;42.38;99001.56;4998011;28;45435;-75
2023/03/08 08:39:01;;;;;;;;;0.00;0.00;;;;;20.98;41.58;99010.84;4999213;28;45941;-75
2023/03/08 08:41:28;;;;;;;;;1.00;0.00;;;;;21.29;40.98;98993.78;4998802;28;45532;-76
2023/03/08 08:43:57;;;;;;;;;1.00;0.00;;;;;21.57;40.25;98988.28;4997966;28;45332;-78
2023/03/08 08:46:33;;;;;;;;;7.33;7.00;;;;;21.63;40.60;98993.34;4998764;28;45779;-79
2023/03/08 08:49:00;;;;;;;;;0.00;0.00;;;;;21.92;39.61;98991.28;4998785;28;45652;-78
2023/03/08 08:51:26;;;;;;;;;2.00;1.00;;;;;22.11;39.49;98993.19;4999685;28;45387;-82
2023/03/08 08:53:53;;;;;;;;;1.00;1.00;;;;;21.90;39.89;99003.75;5000230;28;45519;-82
2023/03/08 08:56:21;;;;;;;;;1.00;1.00;;;;;21.99;40.09;99000.72;5015324;28;45339;-79
2023/03/08 08:58:47;;;;;;;;;0.33;0.33;;;;;22.01;39.37;99004.19;4997640;28;47462;-78
2023/03/08 09:01:24;;;;;;;;;1.00;1.00;;;;;21.96;39.27;99006.16;4999068;28;45429;-79
2023/03/08 09:03:51;;;;;;;;;1.00;1.00;;;;;22.17;39.18;99000.91;4998702;28;45606;-78
2023/03/08 09:06:18;;;;;;;;;1.67;0.00;;;;;22.58;39.26;99015.13;4998732;28;45336;-79
2023/03/08 09:08:47;;;;;;;;;1.00;1.00;;;;;23.00;38.16;99021.25;4998403;28;46031;-76
2023/03/08 09:11:13;;;;;;;;;1.00;1.00;;;;;23.03;37.75;99023.81;4997478;28;45624;-79
2023/03/08 09:13:40;;;;;;;;;0.00;0.00;;;;;22.88;37.83;99032.44;4997079;28;45558;-80
2023/03/08 09:16:15;;;;;;;;;1.00;1.00;;;;;22.81;38.75;99032.72;4998324;28;45587;-80
2023/03/08 09:18:41;;;;;;;;;1.00;1.00;;;;;22.82;38.46;99020.28;4998356;28;46190;-81
2023/03/08 09:21:06;;;;;;;;;0.00;0.00;;;;;23.03;37.81;99024.66;4993823;28;45547;-80
2023/03/08 09:23:32;;;;;;;;;0.00;0.00;;;;;22.86;37.92;99024.56;4989099;28;45975;-79
2023/03/08 09:25:57;;;;;;;;;1.33;1.33;;;;;22.87;37.95;99038.72;4998669;28;45433;-82
2023/03/08 09:28:23;;;;;;;;;1.00;0.67;;;;;22.79;38.19;99029.25;4998319;28;46266;-81
2023/03/08 09:30:49;;;;;;;;;1.00;1.00;;;;;23.10;37.73;99038.59;4998462;28;45406;-79
2023/03/08 09:33:15;;;;;;;;;1.00;0.00;;;;;23.10;37.51;99061.66;4998176;28;45344;-79
2023/03/08 09:35:40;;;;;;;;;1.00;1.00;;;;;22.84;38.01;99051.22;4999410;28;45292;-78
2023/03/08 09:38:06;;;;;;;;;0.00;0.00;;;;;22.89;38.28;99076.78;4997949;28;46076;-82
2023/03/08 09:40:45;;;;;;;;;0.00;0.00;;;;;22.78;37.98;99067.47;4997477;28;45301;-78
2023/03/08 09:43:23;;;;;;;;;3.33;3.00;;;;;23.15;38.23;99083.66;5012010;28;45382;-78
2023/03/08 09:45:53;;;;;;;;;0.00;0.00;;;;;23.58;36.50;99082.53;4996055;28;45555;-78
2023/03/08 09:48:29;;;;;;;;;0.00;0.00;;;;;23.71;36.65;99085.47;4997936;28;45383;-79
2023/03/08 09:51:02;;;;;;;;;0.00;0.00;;;;;23.76;37.06;99079.94;4997735;28;45687;-79
2023/03/08 09:53:43;;;;;;;;;0.00;0.00;;;;;24.08;36.27;99066.91;4997594;28;45577;-80
2023/03/08 09:56:41;;;;;;;;;0.33;0.00;;;;;24.40;35.92;99076.81;4998335;28;45537;-79
2023/03/08 09:59:33;;;;;;;;;3.67;3.67;;;;;24.78;35.37;99070.50;4997354;28;45407;-79
2023/03/08 10:02:11;;;;;;;;;1.00;1.00;;;;;25.17;34.91;99070.19;4997988;28;45332;-80
2023/03/08 10:05:09;;;;;;;;;0.00;0.00;;;;;25.19;34.29;99064.78;4996048;28;45443;-79
2023/03/08 10:07:57;;;;;;;;;3.33;3.00;;;;;25.28;34.30;99093.69;4998014;28;45631;-80
2023/03/08 10:10:56;;;;;;;;;1.00;1.00;;;;;25.44;33.89;99060.78;4997257;28;46096;-80
2023/03/08 10:13:51;;;;;;;;;1.00;1.00;;;;;25.86;33.66;99097.63;4997780;28;45269;-78
2023/03/08 10:16:31;;;;;;;;;0.00;0.00;;;;;25.52;33.95;99101.34;4994829;28;45416;-78
2023/03/08 10:19:04;;;;;;;;;0.00;0.00;;;;;25.33;34.24;99093.47;4997645;28;45435;-80
2023/03/08 10:21:32;;;;;;;;;1.00;1.00;;;;;25.03;34.45;99102.13;4997473;28;46058;-79
2023/03/08 10:24:04;;;;;;;;;0.00;0.00;;;;;24.63;35.24;99104.19;4980041;28;45447;-78
2023/03/08 10:26:30;;;;;;;;;5.00;5.00;;;;;24.29;35.42;99089.84;4983115;28;45585;-80
2023/03/08 10:28:55;;;;;;;;;2.00;1.00;;;;;24.10;35.76;99099.69;4997141;28;45507;-76
2023/03/08 10:31:29;;;;;;;;;1.00;1.00;;;;;23.90;36.50;99122.84;4997275;28;45991;-77
2023/03/08 10:34:19;;;;;;;;;1.33;1.00;;;;;23.80;36.50;99125.09;4996848;28;45505;-77
2023/03/08 10:37:03;;;;;;;;;1.00;0.00;;;;;24.22;36.62;99104.41;4992746;28;45677;-78
2023/03/08 10:39:29;;;;;;;;;1.00;0.33;;;;;24.55;35.40;99125.06;4996871;28;45817;-75
2023/03/08 10:42:11;;;;;;;;;0.33;0.33;;;;;24.20;35.72;99106.31;4995740;28;46110;-80
2023/03/08 10:44:43;;;;;;;;;0.33;0.33;;;;;23.97;36.21;99129.63;4997134;28;45455;-79
2023/03/08 10:47:24;;;;;;;;;0.67;0.67;;;;;23.84;36.69;99135.63;4997327;28;45231;-80
2023/03/08 10:50:11;;;;;;;;;0.00;0.00;;;;;23.65;36.99;99131.09;4982731;28;45386;-80
2023/03/08 10:52:37;;;;;;;;;0.00;0.00;;;;;23.50;37.09;99126.50;4996395;28;46194;-77
2023/03/08 10:55:09;;;;;;;;;0.00;0.00;;;;;23.38;37.17;99141.25;4996985;28;45316;-77
2023/03/08 10:57:35;;;;;;;;;0.00;0.00;;;;;23.08;37.74;99143.44;4981627;28;45423;-79
2023/03/08 11:00:23;;;;;;;;;0.00;0.00;;;;;23.00;38.06;99149.94;4995475;28;45402;-79
2023/03/08 11:02:49;;;;;;;;;0.00;0.00;;;;;22.82;38.48;99148.09;4996937;28;45432;-80
2023/03/08 11:05:19;;;;;;;;;1.00;0.00;;;;;22.81;38.60;99146.34;4996007;28;45538;-84
2023/03/08 11:07:54;;;;;;;;;0.00;0.00;;;;;22.84;38.66;99156.88;4996456;28;45605;-77
2023/03/08 11:10:23;;;;;;;;;1.00;1.00;;;;;22.83;39.08;99148.00;4997554;28;45354;-78
2023/03/08 11:13:01;;;;;;;;;1.00;0.33;;;;;22.79;38.82;99148.22;4996668;28;45542;-78
2023/03/08 11:15:31;;;;;;;;;0.00;0.00;;;;;22.59;39.11;99157.03;4995139;28;45582;-79
2023/03/08 11:18:14;;;;;;;;;0.00;0.00;;;;;22.65;38.99;99162.09;4996802;28;45329;-83
2023/03/08 11:20:47;;;;;;;;;0.00;0.00;;;;;22.82;38.88;99161.41;4993487;28;45515;-80
2023/03/08 11:23:16;;;;;;;;;0.00;0.00;;;;;22.86;39.10;99186.06;4996374;28;46204;-79
2023/03/08 11:25:54;;;;;;;;;0.00;0.00;;;;;22.79;38.97;99201.47;4995178;28;45545;-78
2023/03/08 11:28:44;;;;;;;;;1.00;0.00;;;;;22.64;39.19;99181.66;4996263;28;45428;-79
2023/03/08 11:31:44;;;;;;;;;0.00;0.00;;;;;22.62;38.80;99196.81;4985161;28;45906;-79
2023/03/08 11:34:38;;;;;;;;;0.00;0.00;;;;;22.52;39.45;99171.50;4995964;28;46119;-78
2023/03/08 11:37:19;;;;;;;;;1.00;0.00;;;;;22.56;39.39;99192.63;4996178;28;45178;-80
2023/03/08 11:40:00;;;;;;;;;1.00;1.00;;;;;22.41;39.75;99180.81;4999020;28;45272;-79